createdAt,value
2023-01-13T00:00:39.031Z,0.90
2023-01-13T00:03:06.332Z,1.30
2023-01-13T00:05:33.408Z,1.00
2023-01-13T00:08:00.547Z,1.03
2023-01-13T00:10:27.657Z,1.30
2023-01-13T00:12:54.757Z,1.27
2023-01-13T00:15:21.913Z,1.03
2023-01-13T00:17:49.048Z,1.20
2023-01-13T00:20:16.403Z,1.20
2023-01-13T00:22:43.498Z,1.30
2023-01-13T00:25:10.626Z,1.00
2023-01-13T00:27:37.749Z,1.20
2023-01-13T00:30:05.559Z,1.03
2023-01-13T00:32:32.803Z,1.07
2023-01-13T00:34:59.925Z,1.33
2023-01-13T00:37:27.059Z,1.10
2023-01-13T00:39:54.225Z,1.00
2023-01-13T00:42:39.948Z,1.00
2023-01-13T00:45:07.372Z,1.17
2023-01-13T00:47:34.526Z,1.30
2023-01-13T00:50:01.595Z,1.10
2023-01-13T00:52:28.779Z,1.30
2023-01-13T00:54:55.821Z,0.93
2023-01-13T00:57:22.889Z,0.97
2023-01-13T00:59:50.111Z,1.10
2023-01-13T01:02:17.282Z,0.90
2023-01-13T01:04:44.458Z,0.97
2023-01-13T01:07:11.498Z,0.90
2023-01-13T01:09:39.393Z,1.00
2023-01-13T01:12:06.558Z,0.70
2023-01-13T01:14:33.694Z,1.20
2023-01-13T01:17:00.792Z,1.10
2023-01-13T01:19:27.883Z,0.80
2023-01-13T01:21:54.976Z,0.90
2023-01-13T01:24:22.067Z,1.17
2023-01-13T01:26:49.106Z,0.97
2023-01-13T01:29:16.253Z,0.93
2023-01-13T01:31:43.747Z,1.10
2023-01-13T01:34:10.918Z,0.90
2023-01-13T01:36:38.106Z,1.00
2023-01-13T01:39:06.696Z,1.03
2023-01-13T01:41:35.100Z,0.90
2023-01-13T01:44:08.380Z,0.90
2023-01-13T01:46:39.675Z,0.80
2023-01-13T01:49:09.903Z,0.90
2023-01-13T01:51:43.145Z,0.97
2023-01-13T01:54:11.857Z,0.80
2023-01-13T01:56:39.411Z,0.90
2023-01-13T01:59:06.536Z,0.73
2023-01-13T02:01:34.677Z,0.90
2023-01-13T02:04:05.293Z,0.60
2023-01-13T02:06:32.573Z,0.80
2023-01-13T02:09:00.461Z,0.87
2023-01-13T02:11:47.038Z,0.83
2023-01-13T02:14:14.143Z,0.80
2023-01-13T02:16:45.718Z,0.80
2023-01-13T02:19:25.266Z,0.83
2023-01-13T02:22:04.980Z,1.00
2023-01-13T02:24:54.644Z,0.80
2023-01-13T02:27:27.628Z,0.80
2023-01-13T02:30:13.458Z,0.80
2023-01-13T02:32:46.805Z,0.80
2023-01-13T02:35:26.197Z,0.60
2023-01-13T02:37:54.661Z,0.90
2023-01-13T02:40:25.845Z,1.10
2023-01-13T02:43:15.554Z,0.80
2023-01-13T02:45:45.374Z,0.60
2023-01-13T02:48:14.753Z,0.90
2023-01-13T02:50:45.045Z,0.80
2023-01-13T02:53:23.762Z,0.87
2023-01-13T02:55:52.257Z,1.00
2023-01-13T02:58:20.648Z,0.80
2023-01-13T03:00:49.638Z,0.80
2023-01-13T03:03:16.835Z,0.97
2023-01-13T03:05:45.570Z,0.70
2023-01-13T03:08:31.224Z,0.70
2023-01-13T03:10:58.319Z,0.80
2023-01-13T03:13:25.432Z,0.87
2023-01-13T03:15:55.558Z,0.63
2023-01-13T03:18:33.080Z,0.80
2023-01-13T03:21:20.789Z,0.60
2023-01-13T03:23:58.695Z,0.77
2023-01-13T03:26:32.010Z,0.80
2023-01-13T03:29:06.039Z,0.80
2023-01-13T03:31:35.757Z,0.70
2023-01-13T03:34:05.379Z,0.70
2023-01-13T03:36:33.154Z,0.70
2023-01-13T03:39:03.099Z,0.57
2023-01-13T03:41:36.015Z,0.70
2023-01-13T03:44:24.461Z,0.97
2023-01-13T03:46:57.574Z,0.70
2023-01-13T03:49:27.462Z,0.70
2023-01-13T03:51:59.391Z,0.60
2023-01-13T03:54:29.016Z,0.80
2023-01-13T03:56:57.992Z,0.67
2023-01-13T03:59:27.712Z,0.70
2023-01-13T04:02:13.564Z,0.80
2023-01-13T04:04:40.692Z,0.70
2023-01-13T04:07:16.568Z,0.60
2023-01-13T04:09:50.904Z,0.70
2023-01-13T04:12:21.133Z,0.57
2023-01-13T04:14:48.419Z,0.70
2023-01-13T04:17:16.417Z,0.60
2023-01-13T04:19:43.581Z,0.70
2023-01-13T04:22:10.793Z,0.60
2023-01-13T04:24:37.930Z,0.60
2023-01-13T04:27:06.198Z,0.50
2023-01-13T04:29:33.375Z,0.80
2023-01-13T04:32:00.481Z,0.50
2023-01-13T04:34:28.492Z,0.70
2023-01-13T04:36:55.780Z,0.70
2023-01-13T04:39:22.937Z,0.70
2023-01-13T04:41:59.388Z,0.60
2023-01-13T04:44:26.966Z,0.70
2023-01-13T04:46:54.283Z,0.60
2023-01-13T04:49:21.457Z,0.80
2023-01-13T04:51:48.708Z,0.70
2023-01-13T04:54:16.287Z,0.60
2023-01-13T04:56:43.447Z,0.50
2023-01-13T04:59:11.756Z,0.50
2023-01-13T05:01:39.243Z,0.53
2023-01-13T05:04:07.057Z,0.50
2023-01-13T05:06:34.368Z,0.50
2023-01-13T05:09:01.536Z,0.80
2023-01-13T05:11:47.264Z,0.60
2023-01-13T05:14:33.163Z,0.43
2023-01-13T05:17:00.366Z,0.60
2023-01-13T05:19:31.651Z,0.70
2023-01-13T05:22:17.755Z,0.47
2023-01-13T05:25:03.651Z,0.70
2023-01-13T05:27:31.099Z,0.77
2023-01-13T05:29:58.625Z,0.73
2023-01-13T05:32:28.035Z,0.70
2023-01-13T05:34:55.926Z,0.80
2023-01-13T05:37:23.772Z,0.80
2023-01-13T05:40:09.387Z,0.80
2023-01-13T05:42:55.441Z,0.73
2023-01-13T05:45:22.607Z,0.83
2023-01-13T05:47:49.788Z,0.70
2023-01-13T05:50:17.256Z,0.93
2023-01-13T05:52:44.618Z,0.60
2023-01-13T05:55:12.261Z,0.90
2023-01-13T05:57:39.425Z,1.07
2023-01-13T06:00:07.086Z,0.63
2023-01-13T06:02:34.268Z,0.90
2023-01-13T06:05:01.426Z,0.90
2023-01-13T06:07:28.556Z,0.70
2023-01-13T06:09:55.657Z,0.80
2023-01-13T06:12:22.834Z,0.90
2023-01-13T06:14:50.013Z,0.70
2023-01-13T06:17:17.202Z,0.83
2023-01-13T06:19:44.354Z,0.80
2023-01-13T06:22:13.851Z,0.70
2023-01-13T06:24:41.022Z,0.80
2023-01-13T06:27:09.488Z,0.70
2023-01-13T06:29:36.679Z,0.90
2023-01-13T06:32:06.040Z,0.77
2023-01-13T06:34:34.406Z,0.80
2023-01-13T06:37:02.477Z,0.80
2023-01-13T06:39:31.181Z,0.80
2023-01-13T06:42:17.409Z,0.60
2023-01-13T06:44:46.049Z,0.53
2023-01-13T06:47:13.349Z,0.70
2023-01-13T06:49:40.480Z,0.60
2023-01-13T06:52:07.628Z,0.90
2023-01-13T06:54:34.818Z,0.70
2023-01-13T06:57:02.614Z,0.70
2023-01-13T06:59:30.159Z,0.77
2023-01-13T07:01:57.890Z,0.40
2023-01-13T07:04:25.163Z,0.60
2023-01-13T07:06:52.311Z,0.60
2023-01-13T07:09:19.424Z,0.70
2023-01-13T07:11:46.811Z,0.70
2023-01-13T07:14:32.496Z,0.47
2023-01-13T07:16:59.623Z,0.73
2023-01-13T07:19:26.792Z,0.77
2023-01-13T07:21:54.077Z,0.70
2023-01-13T07:24:22.472Z,0.70
2023-01-13T07:26:51.319Z,0.60
2023-01-13T07:29:18.447Z,0.70
2023-01-13T07:31:46.791Z,0.70
2023-01-13T07:34:15.471Z,0.90
2023-01-13T07:36:42.600Z,0.60
2023-01-13T07:39:09.752Z,0.70
2023-01-13T07:41:55.650Z,0.70
2023-01-13T07:44:22.788Z,0.70
2023-01-13T07:46:49.940Z,0.67
2023-01-13T07:49:17.056Z,0.60
2023-01-13T07:51:44.210Z,0.77
2023-01-13T07:54:11.375Z,0.70
2023-01-13T07:56:38.499Z,0.80
2023-01-13T07:59:05.706Z,0.53
2023-01-13T08:01:32.987Z,0.40
2023-01-13T08:04:00.248Z,0.50
2023-01-13T08:06:27.587Z,0.43
2023-01-13T08:08:54.781Z,0.50
2023-01-13T08:11:23.588Z,0.60
2023-01-13T08:13:50.914Z,0.50
2023-01-13T08:16:18.105Z,0.40
2023-01-13T08:18:45.292Z,0.50
2023-01-13T08:21:13.869Z,0.63
2023-01-13T08:23:41.870Z,0.60
2023-01-13T08:26:13.755Z,0.60
2023-01-13T08:28:41.069Z,0.50
2023-01-13T08:31:09.656Z,0.60
2023-01-13T08:33:37.610Z,0.80
2023-01-13T08:36:06.499Z,0.60
2023-01-13T08:38:34.565Z,0.57
2023-01-13T08:41:02.154Z,0.63
2023-01-13T08:43:29.323Z,0.70
2023-01-13T08:46:00.838Z,0.60
2023-01-13T08:48:31.442Z,0.70
2023-01-13T08:51:07.256Z,0.60
2023-01-13T08:53:34.430Z,1.00
2023-01-13T08:56:01.652Z,0.90
2023-01-13T08:58:28.867Z,0.67
2023-01-13T09:00:56.084Z,0.50
2023-01-13T09:03:23.307Z,0.60
2023-01-13T09:05:50.509Z,0.50
2023-01-13T09:08:17.630Z,0.77
2023-01-13T09:10:45.843Z,0.73
2023-01-13T09:13:13.796Z,0.50
2023-01-13T09:15:41.843Z,0.60
2023-01-13T09:18:09.476Z,0.67
2023-01-13T09:20:36.675Z,0.70
2023-01-13T09:23:04.140Z,0.50
2023-01-13T09:25:31.769Z,0.60
2023-01-13T09:27:58.946Z,0.40
2023-01-13T09:30:26.116Z,0.50
2023-01-13T09:33:13.196Z,0.50
2023-01-13T09:35:40.340Z,0.60
2023-01-13T09:38:07.733Z,0.67
2023-01-13T09:40:36.124Z,0.47
2023-01-13T09:43:44.951Z,0.50
2023-01-13T09:46:37.007Z,0.73
2023-01-13T09:49:04.182Z,0.60
2023-01-13T09:51:34.654Z,0.77
2023-01-13T09:54:12.420Z,0.70
2023-01-13T09:56:39.631Z,0.73
2023-01-13T09:59:09.505Z,0.70
2023-01-13T10:01:42.535Z,1.40
2023-01-13T10:04:13.684Z,1.10
2023-01-13T10:06:43.388Z,0.80
2023-01-13T10:09:15.917Z,0.60
2023-01-13T10:12:08.529Z,0.70
2023-01-13T10:14:41.223Z,0.90
2023-01-13T10:17:08.354Z,0.73
2023-01-13T10:19:39.645Z,0.77
2023-01-13T10:22:30.096Z,1.07
2023-01-13T10:25:07.593Z,0.70
2023-01-13T10:27:39.113Z,0.80
2023-01-13T10:30:12.320Z,0.60
2023-01-13T10:32:39.549Z,0.77
2023-01-13T10:35:06.951Z,0.83
2023-01-13T10:37:34.090Z,0.93
2023-01-13T10:40:03.049Z,0.73
2023-01-13T10:42:30.223Z,0.80
2023-01-13T10:44:58.380Z,0.80
2023-01-13T10:47:27.211Z,0.90
2023-01-13T10:50:09.831Z,1.00
2023-01-13T10:52:40.746Z,1.00
2023-01-13T10:55:25.534Z,1.13
2023-01-13T10:57:52.751Z,0.90
2023-01-13T11:00:30.118Z,0.93
2023-01-13T11:03:23.619Z,0.90
2023-01-13T11:05:55.467Z,1.60
2023-01-13T11:08:24.349Z,1.00
2023-01-13T11:10:53.286Z,0.90
2023-01-13T11:13:26.212Z,1.23
2023-01-13T11:15:54.856Z,0.87
2023-01-13T11:19:12.126Z,0.90
2023-01-13T11:21:39.357Z,0.83
2023-01-13T11:24:11.380Z,1.23
2023-01-13T11:26:42.014Z,1.30
2023-01-13T11:29:13.748Z,1.00
2023-01-13T11:31:43.855Z,1.17
2023-01-13T11:34:23.232Z,1.20
2023-01-13T11:36:52.198Z,0.97
2023-01-13T11:39:21.933Z,1.13
2023-01-13T11:42:12.950Z,1.10
2023-01-13T11:44:43.872Z,1.60
2023-01-13T11:47:12.757Z,1.07
2023-01-13T11:49:39.973Z,1.47
2023-01-13T11:52:10.165Z,1.10
2023-01-13T11:54:56.116Z,1.23
2023-01-13T11:57:37.129Z,1.10
2023-01-13T12:00:04.316Z,0.90
2023-01-13T12:02:34.536Z,1.20
2023-01-13T12:05:11.281Z,1.00
2023-01-13T12:07:45.039Z,1.37
2023-01-13T12:10:14.943Z,1.20
2023-01-13T12:13:04.260Z,1.30
2023-01-13T12:15:31.432Z,1.40
2023-01-13T12:18:17.134Z,1.30
2023-01-13T12:20:48.450Z,1.10
2023-01-13T12:23:25.392Z,1.30
2023-01-13T12:25:55.311Z,1.50
2023-01-13T12:28:29.329Z,1.27
2023-01-13T12:31:00.799Z,1.10
2023-01-13T12:33:45.805Z,1.20
2023-01-13T12:36:17.736Z,1.10
2023-01-13T12:38:44.817Z,1.10
2023-01-13T12:41:31.363Z,1.50
2023-01-13T12:44:17.418Z,1.30
2023-01-13T12:46:45.999Z,1.33
2023-01-13T12:49:28.632Z,1.40
2023-01-13T12:51:55.829Z,1.40
2023-01-13T12:54:38.415Z,1.13
2023-01-13T12:57:17.826Z,1.40
2023-01-13T12:59:49.124Z,1.50
2023-01-13T13:02:17.895Z,1.50
2023-01-13T13:04:47.706Z,1.40
2023-01-13T13:07:23.433Z,1.47
2023-01-13T13:09:53.413Z,1.63
2023-01-13T13:12:50.945Z,1.40
2023-01-13T13:15:25.324Z,1.80
2023-01-13T13:18:11.161Z,1.40
2023-01-13T13:20:57.164Z,1.60
2023-01-13T13:23:35.419Z,1.63
2023-01-13T13:26:11.909Z,1.50
2023-01-13T13:28:42.675Z,1.50
2023-01-13T13:31:20.100Z,1.57
2023-01-13T13:33:50.279Z,1.63
2023-01-13T13:36:55.772Z,1.53
2023-01-13T13:39:46.595Z,1.30
2023-01-13T13:42:32.190Z,1.80
2023-01-13T13:45:19.276Z,1.27
2023-01-13T13:47:46.451Z,1.30
2023-01-13T13:50:15.391Z,1.80
2023-01-13T13:52:45.826Z,1.23
2023-01-13T13:55:21.155Z,1.40
2023-01-13T13:57:52.737Z,1.63
2023-01-13T14:00:23.158Z,1.50
2023-01-13T14:03:02.432Z,1.57
2023-01-13T14:05:36.335Z,1.57
2023-01-13T14:08:03.474Z,1.20
2023-01-13T14:10:32.116Z,1.30
2023-01-13T14:13:00.702Z,1.93
2023-01-13T14:15:33.047Z,1.30
2023-01-13T14:18:02.358Z,1.50
2023-01-13T14:20:29.703Z,1.77
2023-01-13T14:23:01.624Z,1.70
2023-01-13T14:25:42.313Z,1.70
2023-01-13T14:28:24.774Z,1.70
2023-01-13T14:30:52.513Z,1.80
2023-01-13T14:33:22.904Z,1.80
2023-01-13T14:36:05.436Z,1.43
2023-01-13T14:38:32.587Z,1.50
2023-01-13T14:41:10.045Z,1.67
2023-01-13T14:43:42.884Z,1.60
2023-01-13T14:46:10.187Z,1.60
2023-01-13T14:48:37.698Z,1.63
2023-01-13T14:51:06.635Z,2.10
2023-01-13T14:53:43.297Z,1.30
2023-01-13T14:56:31.114Z,1.90
2023-01-13T14:59:02.582Z,1.80
2023-01-13T15:01:36.596Z,1.70
2023-01-13T15:04:16.782Z,1.63
2023-01-13T15:06:46.964Z,1.50
2023-01-13T15:09:14.342Z,1.63
2023-01-13T15:11:41.566Z,1.70
2023-01-13T15:14:11.088Z,1.33
2023-01-13T15:16:38.196Z,1.50
2023-01-13T15:19:05.400Z,1.40
2023-01-13T15:21:32.530Z,1.60
2023-01-13T15:23:59.996Z,1.33
2023-01-13T15:26:28.260Z,1.70
2023-01-13T15:28:56.557Z,1.63
2023-01-13T15:31:23.933Z,1.70
2023-01-13T15:33:51.144Z,1.40
2023-01-13T15:36:20.112Z,1.40
2023-01-13T15:38:47.235Z,1.63
2023-01-13T15:41:14.360Z,1.47
2023-01-13T15:44:00.210Z,1.50
2023-01-13T15:46:39.881Z,1.60
2023-01-13T15:49:09.857Z,1.53
2023-01-13T15:51:38.849Z,1.40
2023-01-13T15:54:05.971Z,1.60
2023-01-13T15:56:36.256Z,2.00
2023-01-13T15:59:04.427Z,1.40
2023-01-13T16:01:31.756Z,1.50
2023-01-13T16:03:58.956Z,1.77
2023-01-13T16:06:30.040Z,1.73
2023-01-13T16:08:57.162Z,1.33
2023-01-13T16:11:24.310Z,1.83
2023-01-13T16:13:51.494Z,1.90
2023-01-13T16:16:23.297Z,1.57
2023-01-13T16:18:51.075Z,1.60
2023-01-13T16:21:21.810Z,1.87
2023-01-13T16:23:49.660Z,1.27
2023-01-13T16:26:27.043Z,1.77
2023-01-13T16:28:55.176Z,1.83
2023-01-13T16:31:31.880Z,1.83
2023-01-13T16:34:00.128Z,1.30
2023-01-13T16:36:27.640Z,1.33
2023-01-13T16:38:55.349Z,1.50
2023-01-13T16:41:24.879Z,1.37
2023-01-13T16:43:52.113Z,1.50
2023-01-13T16:46:19.242Z,1.47
2023-01-13T16:48:46.734Z,1.60
2023-01-13T16:51:13.975Z,1.50
2023-01-13T16:53:41.238Z,1.60
2023-01-13T16:56:17.137Z,1.40
2023-01-13T16:58:44.317Z,1.40
2023-01-13T17:01:34.807Z,1.30
2023-01-13T17:04:02.805Z,1.53
2023-01-13T17:06:33.316Z,1.70
2023-01-13T17:09:01.021Z,1.70
2023-01-13T17:11:28.134Z,1.70
2023-01-13T17:13:55.232Z,1.93
2023-01-13T17:16:24.340Z,2.07
2023-01-13T17:18:51.580Z,1.80
2023-01-13T17:21:19.122Z,1.70
2023-01-13T17:23:46.332Z,2.10
2023-01-13T17:26:32.052Z,2.33
2023-01-13T17:29:00.433Z,1.90
2023-01-13T17:31:27.803Z,1.70
2023-01-13T17:33:54.934Z,1.80
2023-01-13T17:36:23.722Z,1.87
2023-01-13T17:38:51.890Z,1.90
2023-01-13T17:41:19.055Z,1.90
2023-01-13T17:43:46.179Z,1.83
2023-01-13T17:46:14.121Z,1.53
2023-01-13T17:48:41.229Z,1.60
2023-01-13T17:51:10.460Z,1.73
2023-01-13T17:53:40.772Z,2.83
2023-01-13T17:56:09.603Z,1.67
2023-01-13T17:58:37.357Z,1.80
2023-01-13T18:01:08.586Z,1.47
2023-01-13T18:03:35.827Z,1.80
2023-01-13T18:06:04.285Z,2.20
2023-01-13T18:08:31.417Z,1.87
2023-01-13T18:10:59.315Z,1.97
2023-01-13T18:13:26.561Z,1.97
2023-01-13T18:16:01.957Z,1.73
2023-01-13T18:18:29.120Z,1.73
2023-01-13T18:21:15.035Z,1.87
2023-01-13T18:24:01.019Z,1.70
2023-01-13T18:26:47.206Z,1.93
2023-01-13T18:29:14.341Z,1.80
2023-01-13T18:31:41.496Z,1.67
2023-01-13T18:34:08.646Z,1.77
2023-01-13T18:36:35.755Z,1.80
2023-01-13T18:39:03.508Z,1.60
2023-01-13T18:41:49.352Z,1.70
2023-01-13T18:44:16.521Z,2.00
2023-01-13T18:46:43.621Z,2.10
2023-01-13T18:49:10.866Z,1.80
2023-01-13T18:51:38.796Z,1.90
2023-01-13T18:54:06.175Z,1.87
2023-01-13T18:56:33.312Z,1.93
2023-01-13T18:59:01.855Z,2.67
2023-01-13T19:01:29.846Z,2.67
2023-01-13T19:03:57.631Z,2.07
2023-01-13T19:06:27.247Z,2.43
2023-01-13T19:08:55.089Z,2.00
2023-01-13T19:11:23.131Z,1.70
2023-01-13T19:13:50.948Z,1.90
2023-01-13T19:16:19.015Z,2.17
2023-01-13T19:18:46.180Z,1.83
2023-01-13T19:21:13.338Z,1.90
2023-01-13T19:23:40.472Z,2.13
2023-01-13T19:26:09.334Z,2.17
2023-01-13T19:28:36.904Z,2.10
2023-01-13T19:31:05.156Z,1.73
2023-01-13T19:33:34.166Z,2.10
2023-01-13T19:36:01.420Z,1.80
2023-01-13T19:38:28.727Z,2.30
2023-01-13T19:40:56.539Z,2.03
2023-01-13T19:43:42.558Z,1.93
2023-01-13T19:46:09.982Z,1.90
2023-01-13T19:48:37.175Z,1.70
2023-01-13T19:51:04.542Z,2.37
2023-01-13T19:53:32.104Z,1.83
2023-01-13T19:55:59.308Z,1.70
2023-01-13T19:58:26.733Z,1.90
2023-01-13T20:00:54.517Z,1.90
2023-01-13T20:03:24.258Z,1.93
2023-01-13T20:05:52.016Z,1.50
2023-01-13T20:08:20.199Z,2.00
2023-01-13T20:10:48.147Z,2.17
2023-01-13T20:13:15.716Z,1.83
2023-01-13T20:15:43.972Z,1.87
2023-01-13T20:18:12.099Z,1.50
2023-01-13T20:20:39.306Z,1.83
2023-01-13T20:23:06.417Z,2.23
2023-01-13T20:25:33.545Z,1.80
2023-01-13T20:28:02.212Z,1.80
2023-01-13T20:30:29.363Z,1.90
2023-01-13T20:32:56.557Z,2.10
2023-01-13T20:35:27.672Z,1.70
2023-01-13T20:37:54.783Z,1.60
2023-01-13T20:40:21.913Z,1.80
2023-01-13T20:42:49.059Z,1.77
2023-01-13T20:45:20.575Z,2.10
2023-01-13T20:47:47.802Z,1.97
2023-01-13T20:50:15.854Z,1.87
2023-01-13T20:52:43.020Z,2.30
2023-01-13T20:55:10.330Z,1.80
2023-01-13T20:57:37.554Z,2.00
2023-01-13T21:00:05.670Z,2.20
2023-01-13T21:02:32.959Z,1.90
2023-01-13T21:05:00.179Z,1.80
2023-01-13T21:07:28.254Z,1.80
2023-01-13T21:09:57.323Z,1.83
2023-01-13T21:12:43.288Z,2.03
2023-01-13T21:15:18.222Z,2.30
2023-01-13T21:18:04.631Z,1.90
2023-01-13T21:20:33.558Z,1.83
2023-01-13T21:23:01.383Z,1.70
2023-01-13T21:25:28.643Z,1.87
2023-01-13T21:27:56.307Z,1.77
2023-01-13T21:30:23.443Z,1.70
2023-01-13T21:32:50.587Z,1.80
2023-01-13T21:35:17.789Z,2.10
2023-01-13T21:37:44.988Z,2.27
2023-01-13T21:40:13.494Z,2.03
2023-01-13T21:42:59.188Z,2.30
2023-01-13T21:45:45.252Z,2.20
2023-01-13T21:48:12.505Z,2.50
2023-01-13T21:50:39.673Z,2.50
2023-01-13T21:53:08.021Z,1.97
2023-01-13T21:55:36.640Z,1.80
2023-01-13T21:58:12.346Z,1.80
2023-01-13T22:00:40.181Z,2.50
2023-01-13T22:03:08.266Z,1.87
2023-01-13T22:05:36.023Z,2.10
2023-01-13T22:08:03.266Z,1.90
2023-01-13T22:10:31.631Z,1.90
2023-01-13T22:13:00.160Z,1.77
2023-01-13T22:15:29.578Z,2.00
2023-01-13T22:17:57.569Z,2.00
2023-01-13T22:20:25.083Z,2.07
2023-01-13T22:22:52.202Z,2.47
2023-01-13T22:25:20.281Z,2.50
2023-01-13T22:27:48.387Z,2.10
2023-01-13T22:30:18.146Z,2.03
2023-01-13T22:32:46.419Z,2.13
2023-01-13T22:35:14.169Z,2.00
2023-01-13T22:37:41.627Z,2.20
2023-01-13T22:40:09.838Z,2.10
2023-01-13T22:42:38.216Z,2.23
2023-01-13T22:45:06.242Z,2.10
2023-01-13T22:47:33.708Z,2.40
2023-01-13T22:50:00.868Z,1.97
2023-01-13T22:52:28.572Z,2.20
2023-01-13T22:54:55.729Z,1.83
2023-01-13T22:57:24.001Z,2.00
2023-01-13T22:59:51.285Z,2.20
2023-01-13T23:02:18.433Z,2.37
2023-01-13T23:04:45.610Z,2.07
2023-01-13T23:07:12.819Z,2.00
2023-01-13T23:09:39.948Z,2.83
2023-01-13T23:12:07.159Z,2.77
2023-01-13T23:14:34.305Z,1.77
2023-01-13T23:17:01.503Z,1.97
2023-01-13T23:19:28.850Z,2.07
2023-01-13T23:21:55.981Z,2.17
2023-01-13T23:24:25.977Z,2.70
2023-01-13T23:26:53.300Z,2.50
2023-01-13T23:29:20.492Z,2.70
2023-01-13T23:31:47.923Z,3.60
2023-01-13T23:34:15.547Z,2.83
2023-01-13T23:36:43.815Z,2.10
2023-01-13T23:39:10.942Z,2.40
2023-01-13T23:41:38.146Z,2.70
2023-01-13T23:44:06.904Z,2.40
2023-01-13T23:46:35.264Z,3.07
2023-01-13T23:49:03.488Z,2.53
2023-01-13T23:51:30.692Z,2.60
2023-01-13T23:53:59.083Z,2.30
2023-01-13T23:56:28.254Z,2.70
2023-01-13T23:58:55.715Z,3.03
